sensor_id;sensor_type;location;lat;lon;timestamp;P1;durP1;ratioP1;P2;durP2;ratioP2
80557;SDS011;69901;43.524;-5.636;2024-02-21T00:01:21;15.57;;;13.50;;
80557;SDS011;69901;43.524;-5.636;2024-02-21T00:03:47;17.87;;;13.43;;
80557;SDS011;69901;43.524;-5.636;2024-02-21T00:06:13;15.25;;;13.65;;
80557;SDS011;69901;43.524;-5.636;2024-02-21T00:08:38;15.17;;;13.57;;
80557;SDS011;69901;43.524;-5.636;2024-02-21T00:11:04;20.58;;;14.40;;
80557;SDS011;69901;43.524;-5.636;2024-02-21T00:13:29;16.67;;;12.57;;
80557;SDS011;69901;43.524;-5.636;2024-02-21T00:15:55;16.63;;;12.70;;
80557;SDS011;69901;43.524;-5.636;2024-02-21T00:18:21;14.38;;;12.88;;
80557;SDS011;69901;43.524;-5.636;2024-02-21T00:20:46;16.07;;;13.20;;
80557;SDS011;69901;43.524;-5.636;2024-02-21T00:23:12;15.43;;;13.20;;
80557;SDS011;69901;43.524;-5.636;2024-02-21T00:25:37;14.73;;;12.93;;
80557;SDS011;69901;43.524;-5.636;2024-02-21T00:28:03;15.70;;;13.00;;
80557;SDS011;69901;43.524;-5.636;2024-02-21T00:30:28;16.08;;;14.23;;
80557;SDS011;69901;43.524;-5.636;2024-02-21T00:32:54;17.47;;;13.63;;
80557;SDS011;69901;43.524;-5.636;2024-02-21T00:35:20;16.00;;;12.70;;
80557;SDS011;69901;43.524;-5.636;2024-02-21T00:37:45;13.95;;;12.38;;
80557;SDS011;69901;43.524;-5.636;2024-02-21T00:40:11;15.83;;;12.20;;
80557;SDS011;69901;43.524;-5.636;2024-02-21T00:42:36;17.43;;;12.63;;
80557;SDS011;69901;43.524;-5.636;2024-02-21T00:45:02;14.55;;;13.00;;
80557;SDS011;69901;43.524;-5.636;2024-02-21T00:47:27;16.43;;;12.53;;
80557;SDS011;69901;43.524;-5.636;2024-02-21T00:49:53;14.97;;;13.43;;
80557;SDS011;69901;43.524;-5.636;2024-02-21T00:52:18;14.68;;;12.52;;
80557;SDS011;69901;43.524;-5.636;2024-02-21T00:54:44;15.73;;;13.40;;
80557;SDS011;69901;43.524;-5.636;2024-02-21T00:57:09;16.20;;;13.50;;
80557;SDS011;69901;43.524;-5.636;2024-02-21T00:59:35;14.88;;;13.27;;
80557;SDS011;69901;43.524;-5.636;2024-02-21T01:02:01;16.17;;;13.33;;
80557;SDS011;69901;43.524;-5.636;2024-02-21T01:04:26;14.37;;;12.97;;
80557;SDS011;69901;43.524;-5.636;2024-02-21T01:06:52;15.50;;;13.05;;
80557;SDS011;69901;43.524;-5.636;2024-02-21T01:09:17;15.53;;;13.93;;
80557;SDS011;69901;43.524;-5.636;2024-02-21T01:11:42;14.40;;;12.90;;
80557;SDS011;69901;43.524;-5.636;2024-02-21T01:14:08;16.47;;;13.07;;
80557;SDS011;69901;43.524;-5.636;2024-02-21T01:16:33;15.63;;;13.20;;
80557;SDS011;69901;43.524;-5.636;2024-02-21T01:18:59;15.63;;;13.80;;
80557;SDS011;69901;43.524;-5.636;2024-02-21T01:21:24;18.97;;;14.57;;
80557;SDS011;69901;43.524;-5.636;2024-02-21T01:23:50;14.98;;;13.38;;
80557;SDS011;69901;43.524;-5.636;2024-02-21T01:26:15;14.40;;;12.83;;
80557;SDS011;69901;43.524;-5.636;2024-02-21T01:28:41;14.83;;;13.33;;
80557;SDS011;69901;43.524;-5.636;2024-02-21T01:31:07;16.38;;;13.73;;
80557;SDS011;69901;43.524;-5.636;2024-02-21T01:33:32;15.10;;;12.93;;
80557;SDS011;69901;43.524;-5.636;2024-02-21T01:36:03;14.10;;;12.15;;
80557;SDS011;69901;43.524;-5.636;2024-02-21T01:38:29;14.75;;;13.23;;
80557;SDS011;69901;43.524;-5.636;2024-02-21T01:40:54;16.33;;;13.10;;
80557;SDS011;69901;43.524;-5.636;2024-02-21T01:43:20;14.63;;;13.23;;
80557;SDS011;69901;43.524;-5.636;2024-02-21T01:45:46;16.77;;;12.83;;
80557;SDS011;69901;43.524;-5.636;2024-02-21T01:48:15;14.67;;;13.07;;
80557;SDS011;69901;43.524;-5.636;2024-02-21T01:50:42;14.43;;;12.98;;
80557;SDS011;69901;43.524;-5.636;2024-02-21T01:53:09;15.48;;;13.43;;
80557;SDS011;69901;43.524;-5.636;2024-02-21T01:55:35;16.15;;;13.20;;
80557;SDS011;69901;43.524;-5.636;2024-02-21T01:58:01;15.10;;;13.60;;
80557;SDS011;69901;43.524;-5.636;2024-02-21T02:00:27;15.07;;;13.57;;
80557;SDS011;69901;43.524;-5.636;2024-02-21T02:02:53;15.65;;;13.32;;
80557;SDS011;69901;43.524;-5.636;2024-02-21T02:05:19;14.77;;;13.27;;
80557;SDS011;69901;43.524;-5.636;2024-02-21T02:07:46;14.52;;;13.02;;
80557;SDS011;69901;43.524;-5.636;2024-02-21T02:10:11;14.10;;;12.70;;
80557;SDS011;69901;43.524;-5.636;2024-02-21T02:12:37;15.20;;;13.37;;
80557;SDS011;69901;43.524;-5.636;2024-02-21T02:15:03;14.43;;;12.40;;
80557;SDS011;69901;43.524;-5.636;2024-02-21T02:17:31;14.93;;;13.30;;
80557;SDS011;69901;43.524;-5.636;2024-02-21T02:19:57;14.65;;;13.05;;
80557;SDS011;69901;43.524;-5.636;2024-02-21T02:22:25;14.30;;;12.90;;
80557;SDS011;69901;43.524;-5.636;2024-02-21T02:24:54;16.17;;;12.93;;
80557;SDS011;69901;43.524;-5.636;2024-02-21T02:27:19;14.50;;;12.93;;
80557;SDS011;69901;43.524;-5.636;2024-02-21T02:29:45;14.20;;;12.57;;
80557;SDS011;69901;43.524;-5.636;2024-02-21T02:32:11;14.43;;;12.90;;
80557;SDS011;69901;43.524;-5.636;2024-02-21T02:34:37;14.00;;;12.68;;
80557;SDS011;69901;43.524;-5.636;2024-02-21T02:37:02;17.40;;;13.20;;
80557;SDS011;69901;43.524;-5.636;2024-02-21T02:39:28;14.60;;;13.13;;
80557;SDS011;69901;43.524;-5.636;2024-02-21T02:41:53;14.33;;;12.83;;
80557;SDS011;69901;43.524;-5.636;2024-02-21T02:44:19;15.27;;;13.70;;
80557;SDS011;69901;43.524;-5.636;2024-02-21T02:46:44;16.50;;;14.50;;
80557;SDS011;69901;43.524;-5.636;2024-02-21T02:49:10;14.80;;;13.47;;
80557;SDS011;69901;43.524;-5.636;2024-02-21T02:51:35;14.93;;;13.43;;
80557;SDS011;69901;43.524;-5.636;2024-02-21T02:54:01;15.13;;;13.60;;
80557;SDS011;69901;43.524;-5.636;2024-02-21T02:56:28;14.73;;;13.20;;
80557;SDS011;69901;43.524;-5.636;2024-02-21T02:58:53;14.90;;;13.30;;
80557;SDS011;69901;43.524;-5.636;2024-02-21T03:01:18;14.37;;;12.97;;
80557;SDS011;69901;43.524;-5.636;2024-02-21T03:03:44;15.20;;;13.70;;
80557;SDS011;69901;43.524;-5.636;2024-02-21T03:06:12;15.20;;;13.80;;
80557;SDS011;69901;43.524;-5.636;2024-02-21T03:08:37;15.32;;;13.75;;
80557;SDS011;69901;43.524;-5.636;2024-02-21T03:11:04;14.90;;;13.40;;
80557;SDS011;69901;43.524;-5.636;2024-02-21T03:13:30;14.80;;;13.40;;
80557;SDS011;69901;43.524;-5.636;2024-02-21T03:15:56;14.20;;;12.80;;
80557;SDS011;69901;43.524;-5.636;2024-02-21T03:18:24;15.60;;;13.90;;
80557;SDS011;69901;43.524;-5.636;2024-02-21T03:20:50;14.90;;;13.40;;
80557;SDS011;69901;43.524;-5.636;2024-02-21T03:23:15;15.75;;;14.15;;
80557;SDS011;69901;43.524;-5.636;2024-02-21T03:25:41;15.37;;;12.60;;
80557;SDS011;69901;43.524;-5.636;2024-02-21T03:28:06;13.57;;;12.23;;
80557;SDS011;69901;43.524;-5.636;2024-02-21T03:30:32;13.70;;;12.40;;
80557;SDS011;69901;43.524;-5.636;2024-02-21T03:32:58;23.90;;;12.90;;
80557;SDS011;69901;43.524;-5.636;2024-02-21T03:35:24;14.27;;;12.93;;
80557;SDS011;69901;43.524;-5.636;2024-02-21T03:37:51;13.38;;;12.18;;
80557;SDS011;69901;43.524;-5.636;2024-02-21T03:40:17;13.55;;;12.13;;
80557;SDS011;69901;43.524;-5.636;2024-02-21T03:42:42;13.60;;;11.80;;
80557;SDS011;69901;43.524;-5.636;2024-02-21T03:45:09;13.43;;;12.02;;
80557;SDS011;69901;43.524;-5.636;2024-02-21T03:47:34;13.67;;;12.20;;
80557;SDS011;69901;43.524;-5.636;2024-02-21T03:50:00;13.25;;;11.85;;
80557;SDS011;69901;43.524;-5.636;2024-02-21T03:52:25;13.73;;;12.13;;
80557;SDS011;69901;43.524;-5.636;2024-02-21T03:54:51;13.17;;;11.87;;
80557;SDS011;69901;43.524;-5.636;2024-02-21T03:57:16;14.03;;;12.73;;
80557;SDS011;69901;43.524;-5.636;2024-02-21T03:59:42;13.70;;;12.50;;
80557;SDS011;69901;43.524;-5.636;2024-02-21T04:02:09;13.85;;;12.52;;
80557;SDS011;69901;43.524;-5.636;2024-02-21T04:04:35;13.07;;;11.70;;
80557;SDS011;69901;43.524;-5.636;2024-02-21T04:07:03;12.35;;;11.05;;
80557;SDS011;69901;43.524;-5.636;2024-02-21T04:09:32;13.13;;;11.93;;
80557;SDS011;69901;43.524;-5.636;2024-02-21T04:12:00;12.48;;;11.27;;
80557;SDS011;69901;43.524;-5.636;2024-02-21T04:14:26;12.53;;;11.23;;
80557;SDS011;69901;43.524;-5.636;2024-02-21T04:16:51;12.70;;;11.50;;
80557;SDS011;69901;43.524;-5.636;2024-02-21T04:19:17;14.10;;;12.70;;
80557;SDS011;69901;43.524;-5.636;2024-02-21T04:21:42;12.90;;;11.60;;
80557;SDS011;69901;43.524;-5.636;2024-02-21T04:24:08;12.23;;;11.13;;
80557;SDS011;69901;43.524;-5.636;2024-02-21T04:26:33;12.75;;;11.45;;
80557;SDS011;69901;43.524;-5.636;2024-02-21T04:28:59;12.50;;;11.30;;
80557;SDS011;69901;43.524;-5.636;2024-02-21T04:31:25;12.88;;;11.65;;
80557;SDS011;69901;43.524;-5.636;2024-02-21T04:33:50;12.23;;;11.00;;
80557;SDS011;69901;43.524;-5.636;2024-02-21T04:36:16;11.90;;;10.80;;
80557;SDS011;69901;43.524;-5.636;2024-02-21T04:38:41;13.07;;;11.60;;
80557;SDS011;69901;43.524;-5.636;2024-02-21T04:41:07;13.03;;;11.73;;
80557;SDS011;69901;43.524;-5.636;2024-02-21T04:43:33;12.35;;;11.25;;
80557;SDS011;69901;43.524;-5.636;2024-02-21T04:45:58;12.67;;;11.57;;
80557;SDS011;69901;43.524;-5.636;2024-02-21T04:48:24;13.07;;;11.87;;
80557;SDS011;69901;43.524;-5.636;2024-02-21T04:50:49;13.00;;;11.90;;
80557;SDS011;69901;43.524;-5.636;2024-02-21T04:53:15;13.10;;;11.90;;
80557;SDS011;69901;43.524;-5.636;2024-02-21T04:55:41;12.90;;;11.70;;
80557;SDS011;69901;43.524;-5.636;2024-02-21T04:58:07;13.90;;;12.40;;
80557;SDS011;69901;43.524;-5.636;2024-02-21T05:00:32;12.75;;;11.45;;
80557;SDS011;69901;43.524;-5.636;2024-02-21T05:02:58;12.13;;;10.90;;
80557;SDS011;69901;43.524;-5.636;2024-02-21T05:05:23;12.63;;;11.35;;
80557;SDS011;69901;43.524;-5.636;2024-02-21T05:07:49;13.53;;;12.13;;
80557;SDS011;69901;43.524;-5.636;2024-02-21T05:10:14;12.77;;;11.47;;
80557;SDS011;69901;43.524;-5.636;2024-02-21T05:12:40;13.00;;;11.90;;
80557;SDS011;69901;43.524;-5.636;2024-02-21T05:15:05;13.20;;;12.00;;
80557;SDS011;69901;43.524;-5.636;2024-02-21T05:17:31;13.80;;;12.40;;
80557;SDS011;69901;43.524;-5.636;2024-02-21T05:19:57;13.47;;;12.10;;
80557;SDS011;69901;43.524;-5.636;2024-02-21T05:22:22;13.70;;;12.40;;
80557;SDS011;69901;43.524;-5.636;2024-02-21T05:24:48;12.82;;;11.63;;
80557;SDS011;69901;43.524;-5.636;2024-02-21T05:27:14;13.77;;;12.37;;
80557;SDS011;69901;43.524;-5.636;2024-02-21T05:29:39;14.00;;;12.70;;
80557;SDS011;69901;43.524;-5.636;2024-02-21T05:32:05;13.60;;;12.40;;
80557;SDS011;69901;43.524;-5.636;2024-02-21T05:34:31;13.70;;;12.50;;
80557;SDS011;69901;43.524;-5.636;2024-02-21T05:36:56;14.43;;;12.80;;
80557;SDS011;69901;43.524;-5.636;2024-02-21T05:39:24;14.30;;;12.80;;
80557;SDS011;69901;43.524;-5.636;2024-02-21T05:41:50;13.87;;;12.60;;
80557;SDS011;69901;43.524;-5.636;2024-02-21T05:44:16;15.05;;;12.90;;
80557;SDS011;69901;43.524;-5.636;2024-02-21T05:46:42;13.67;;;12.47;;
80557;SDS011;69901;43.524;-5.636;2024-02-21T05:49:07;14.27;;;12.80;;
80557;SDS011;69901;43.524;-5.636;2024-02-21T05:51:33;14.50;;;13.10;;
80557;SDS011;69901;43.524;-5.636;2024-02-21T05:53:59;14.45;;;13.07;;
80557;SDS011;69901;43.524;-5.636;2024-02-21T05:56:25;14.27;;;12.48;;
80557;SDS011;69901;43.524;-5.636;2024-02-21T05:58:51;14.80;;;13.40;;
80557;SDS011;69901;43.524;-5.636;2024-02-21T06:01:16;14.52;;;13.20;;
80557;SDS011;69901;43.524;-5.636;2024-02-21T06:03:42;14.27;;;12.97;;
80557;SDS011;69901;43.524;-5.636;2024-02-21T06:06:08;15.00;;;13.65;;
80557;SDS011;69901;43.524;-5.636;2024-02-21T06:08:34;14.60;;;13.20;;
80557;SDS011;69901;43.524;-5.636;2024-02-21T06:10:59;14.32;;;13.02;;
80557;SDS011;69901;43.524;-5.636;2024-02-21T06:13:25;14.67;;;13.37;;
80557;SDS011;69901;43.524;-5.636;2024-02-21T06:15:50;14.67;;;13.07;;
80557;SDS011;69901;43.524;-5.636;2024-02-21T06:18:19;15.30;;;13.70;;
80557;SDS011;69901;43.524;-5.636;2024-02-21T06:20:45;14.93;;;13.43;;
80557;SDS011;69901;43.524;-5.636;2024-02-21T06:23:12;14.65;;;13.35;;
80557;SDS011;69901;43.524;-5.636;2024-02-21T06:25:38;15.27;;;13.88;;
80557;SDS011;69901;43.524;-5.636;2024-02-21T06:28:04;14.87;;;13.47;;
80557;SDS011;69901;43.524;-5.636;2024-02-21T06:30:30;14.98;;;13.50;;
80557;SDS011;69901;43.524;-5.636;2024-02-21T06:32:55;14.95;;;13.55;;
80557;SDS011;69901;43.524;-5.636;2024-02-21T06:35:21;15.33;;;13.83;;
80557;SDS011;69901;43.524;-5.636;2024-02-21T06:37:49;15.38;;;13.98;;
80557;SDS011;69901;43.524;-5.636;2024-02-21T06:40:16;15.13;;;13.73;;
80557;SDS011;69901;43.524;-5.636;2024-02-21T06:42:48;15.77;;;14.18;;
80557;SDS011;69901;43.524;-5.636;2024-02-21T06:45:14;15.65;;;14.00;;
80557;SDS011;69901;43.524;-5.636;2024-02-21T06:47:40;15.33;;;13.77;;
80557;SDS011;69901;43.524;-5.636;2024-02-21T06:50:05;14.95;;;13.55;;
80557;SDS011;69901;43.524;-5.636;2024-02-21T06:52:31;15.60;;;14.10;;
80557;SDS011;69901;43.524;-5.636;2024-02-21T06:54:57;14.75;;;13.35;;
80557;SDS011;69901;43.524;-5.636;2024-02-21T06:57:22;15.53;;;14.03;;
80557;SDS011;69901;43.524;-5.636;2024-02-21T06:59:48;14.93;;;13.48;;
80557;SDS011;69901;43.524;-5.636;2024-02-21T07:02:13;14.73;;;13.30;;
80557;SDS011;69901;43.524;-5.636;2024-02-21T07:04:39;15.63;;;14.10;;
80557;SDS011;69901;43.524;-5.636;2024-02-21T07:07:05;15.27;;;13.73;;
80557;SDS011;69901;43.524;-5.636;2024-02-21T07:09:30;15.10;;;13.77;;
80557;SDS011;69901;43.524;-5.636;2024-02-21T07:12:00;14.52;;;13.23;;
80557;SDS011;69901;43.524;-5.636;2024-02-21T07:14:25;15.25;;;13.85;;
80557;SDS011;69901;43.524;-5.636;2024-02-21T07:16:51;15.53;;;14.17;;
80557;SDS011;69901;43.524;-5.636;2024-02-21T07:19:16;14.75;;;13.25;;
80557;SDS011;69901;43.524;-5.636;2024-02-21T07:21:42;15.70;;;14.10;;
80557;SDS011;69901;43.524;-5.636;2024-02-21T07:24:08;15.40;;;13.90;;
80557;SDS011;69901;43.524;-5.636;2024-02-21T07:26:34;15.83;;;14.50;;
80557;SDS011;69901;43.524;-5.636;2024-02-21T07:28:59;15.68;;;14.32;;
80557;SDS011;69901;43.524;-5.636;2024-02-21T07:31:25;15.10;;;13.70;;
80557;SDS011;69901;43.524;-5.636;2024-02-21T07:33:51;15.45;;;13.95;;
80557;SDS011;69901;43.524;-5.636;2024-02-21T07:36:23;16.07;;;14.50;;
80557;SDS011;69901;43.524;-5.636;2024-02-21T07:38:53;15.27;;;13.98;;
80557;SDS011;69901;43.524;-5.636;2024-02-21T07:41:19;15.77;;;14.37;;
80557;SDS011;69901;43.524;-5.636;2024-02-21T07:43:44;15.63;;;14.33;;
80557;SDS011;69901;43.524;-5.636;2024-02-21T07:46:09;15.90;;;14.50;;
80557;SDS011;69901;43.524;-5.636;2024-02-21T07:48:35;15.67;;;14.07;;
80557;SDS011;69901;43.524;-5.636;2024-02-21T07:51:00;16.37;;;14.90;;
80557;SDS011;69901;43.524;-5.636;2024-02-21T07:53:26;15.23;;;13.83;;
80557;SDS011;69901;43.524;-5.636;2024-02-21T07:55:51;14.68;;;13.48;;
80557;SDS011;69901;43.524;-5.636;2024-02-21T07:58:17;15.13;;;13.63;;
80557;SDS011;69901;43.524;-5.636;2024-02-21T08:00:42;16.20;;;14.80;;
80557;SDS011;69901;43.524;-5.636;2024-02-21T08:03:08;15.53;;;14.07;;
80557;SDS011;69901;43.524;-5.636;2024-02-21T08:05:36;17.42;;;14.50;;
80557;SDS011;69901;43.524;-5.636;2024-02-21T08:08:02;15.33;;;13.80;;
80557;SDS011;69901;43.524;-5.636;2024-02-21T08:10:29;15.77;;;14.13;;
80557;SDS011;69901;43.524;-5.636;2024-02-21T08:13:03;16.00;;;14.50;;
80557;SDS011;69901;43.524;-5.636;2024-02-21T08:15:28;15.70;;;13.95;;
80557;SDS011;69901;43.524;-5.636;2024-02-21T08:17:55;15.50;;;14.00;;
80557;SDS011;69901;43.524;-5.636;2024-02-21T08:20:24;14.60;;;13.20;;
80557;SDS011;69901;43.524;-5.636;2024-02-21T08:22:51;15.00;;;13.80;;
80557;SDS011;69901;43.524;-5.636;2024-02-21T08:25:17;15.47;;;14.17;;
80557;SDS011;69901;43.524;-5.636;2024-02-21T08:27:42;15.43;;;14.00;;
80557;SDS011;69901;43.524;-5.636;2024-02-21T08:30:08;15.68;;;14.20;;
80557;SDS011;69901;43.524;-5.636;2024-02-21T08:32:34;15.50;;;14.10;;
80557;SDS011;69901;43.524;-5.636;2024-02-21T08:35:01;15.80;;;14.30;;
80557;SDS011;69901;43.524;-5.636;2024-02-21T08:37:27;14.87;;;13.67;;
80557;SDS011;69901;43.524;-5.636;2024-02-21T08:39:52;14.85;;;13.55;;
80557;SDS011;69901;43.524;-5.636;2024-02-21T08:42:18;18.87;;;14.87;;
80557;SDS011;69901;43.524;-5.636;2024-02-21T08:44:44;15.45;;;14.02;;
80557;SDS011;69901;43.524;-5.636;2024-02-21T08:47:10;16.10;;;14.60;;
80557;SDS011;69901;43.524;-5.636;2024-02-21T08:49:36;15.85;;;14.23;;
80557;SDS011;69901;43.524;-5.636;2024-02-21T08:52:02;16.92;;;15.32;;
80557;SDS011;69901;43.524;-5.636;2024-02-21T08:54:28;15.27;;;13.77;;
80557;SDS011;69901;43.524;-5.636;2024-02-21T08:56:53;16.70;;;14.93;;
80557;SDS011;69901;43.524;-5.636;2024-02-21T08:59:19;15.97;;;14.37;;
80557;SDS011;69901;43.524;-5.636;2024-02-21T09:01:46;17.10;;;15.43;;
80557;SDS011;69901;43.524;-5.636;2024-02-21T09:04:12;16.35;;;14.75;;
80557;SDS011;69901;43.524;-5.636;2024-02-21T09:06:37;16.00;;;14.40;;
80557;SDS011;69901;43.524;-5.636;2024-02-21T09:09:07;16.42;;;15.02;;
80557;SDS011;69901;43.524;-5.636;2024-02-21T09:11:33;16.67;;;15.00;;
80557;SDS011;69901;43.524;-5.636;2024-02-21T09:13:59;16.42;;;14.98;;
80557;SDS011;69901;43.524;-5.636;2024-02-21T09:16:25;16.57;;;14.93;;
80557;SDS011;69901;43.524;-5.636;2024-02-21T09:18:50;15.37;;;14.07;;
80557;SDS011;69901;43.524;-5.636;2024-02-21T09:21:17;16.48;;;14.85;;
80557;SDS011;69901;43.524;-5.636;2024-02-21T09:26:58;16.60;;;15.13;;
80557;SDS011;69901;43.524;-5.636;2024-02-21T09:29:37;15.90;;;14.40;;
80557;SDS011;69901;43.524;-5.636;2024-02-21T09:50:20;17.13;;;15.52;;
80557;SDS011;69901;43.524;-5.636;2024-02-21T09:53:08;17.13;;;15.52;;
80557;SDS011;69901;43.524;-5.636;2024-02-21T09:55:37;16.52;;;15.10;;
80557;SDS011;69901;43.524;-5.636;2024-02-21T09:58:05;17.20;;;15.67;;
80557;SDS011;69901;43.524;-5.636;2024-02-21T10:00:31;17.08;;;15.50;;
80557;SDS011;69901;43.524;-5.636;2024-02-21T10:02:56;16.73;;;15.10;;
80557;SDS011;69901;43.524;-5.636;2024-02-21T10:05:23;17.35;;;15.73;;
80557;SDS011;69901;43.524;-5.636;2024-02-21T10:07:50;18.05;;;16.35;;
80557;SDS011;69901;43.524;-5.636;2024-02-21T10:10:16;19.20;;;17.20;;
80557;SDS011;69901;43.524;-5.636;2024-02-21T10:12:58;17.83;;;16.27;;
80557;SDS011;69901;43.524;-5.636;2024-02-21T10:15:26;17.58;;;16.02;;
80557;SDS011;69901;43.524;-5.636;2024-02-21T10:17:59;18.67;;;17.08;;
80557;SDS011;69901;43.524;-5.636;2024-02-21T10:20:26;17.47;;;15.73;;
80557;SDS011;69901;43.524;-5.636;2024-02-21T10:26:13;18.98;;;17.17;;
80557;SDS011;69901;43.524;-5.636;2024-02-21T10:28:54;18.90;;;17.25;;
80557;SDS011;69901;43.524;-5.636;2024-02-21T10:31:52;18.25;;;16.75;;
80557;SDS011;69901;43.524;-5.636;2024-02-21T10:34:29;18.77;;;17.13;;
80557;SDS011;69901;43.524;-5.636;2024-02-21T10:37:01;19.10;;;17.25;;
80557;SDS011;69901;43.524;-5.636;2024-02-21T10:39:38;19.83;;;18.13;;
80557;SDS011;69901;43.524;-5.636;2024-02-21T10:42:04;18.75;;;17.15;;
80557;SDS011;69901;43.524;-5.636;2024-02-21T10:47:30;19.13;;;17.53;;
80557;SDS011;69901;43.524;-5.636;2024-02-21T10:50:03;19.60;;;17.70;;
80557;SDS011;69901;43.524;-5.636;2024-02-21T10:52:55;21.08;;;19.13;;
80557;SDS011;69901;43.524;-5.636;2024-02-21T10:55:32;21.00;;;19.00;;
80557;SDS011;69901;43.524;-5.636;2024-02-21T10:58:04;23.00;;;20.80;;
80557;SDS011;69901;43.524;-5.636;2024-02-21T11:00:30;21.93;;;19.93;;
80557;SDS011;69901;43.524;-5.636;2024-02-21T11:02:58;20.88;;;18.83;;
80557;SDS011;69901;43.524;-5.636;2024-02-21T11:05:24;23.98;;;20.08;;
80557;SDS011;69901;43.524;-5.636;2024-02-21T11:08:00;17.15;;;15.32;;
80557;SDS011;69901;43.524;-5.636;2024-02-21T11:21:46;18.73;;;16.73;;
80557;SDS011;69901;43.524;-5.636;2024-02-21T11:44:54;16.05;;;14.55;;
80557;SDS011;69901;43.524;-5.636;2024-02-21T11:47:24;14.55;;;13.10;;
80557;SDS011;69901;43.524;-5.636;2024-02-21T11:49:49;16.38;;;14.68;;
80557;SDS011;69901;43.524;-5.636;2024-02-21T11:52:18;15.50;;;13.90;;
80557;SDS011;69901;43.524;-5.636;2024-02-21T11:54:50;14.80;;;13.37;;
80557;SDS011;69901;43.524;-5.636;2024-02-21T11:57:20;15.65;;;13.95;;
80557;SDS011;69901;43.524;-5.636;2024-02-21T11:59:46;15.20;;;13.70;;
80557;SDS011;69901;43.524;-5.636;2024-02-21T12:02:12;15.27;;;13.68;;
80557;SDS011;69901;43.524;-5.636;2024-02-21T12:04:37;15.90;;;14.25;;
80557;SDS011;69901;43.524;-5.636;2024-02-21T12:10:41;24.35;;;21.48;;
80557;SDS011;69901;43.524;-5.636;2024-02-21T12:13:08;29.90;;;23.25;;
80557;SDS011;69901;43.524;-5.636;2024-02-21T12:15:34;25.73;;;19.67;;
80557;SDS011;69901;43.524;-5.636;2024-02-21T12:18:00;24.55;;;19.42;;
80557;SDS011;69901;43.524;-5.636;2024-02-21T12:20:26;22.45;;;20.05;;
80557;SDS011;69901;43.524;-5.636;2024-02-21T12:22:52;22.47;;;18.43;;
80557;SDS011;69901;43.524;-5.636;2024-02-21T12:25:19;25.88;;;21.23;;
80557;SDS011;69901;43.524;-5.636;2024-02-21T12:27:51;23.27;;;19.42;;
80557;SDS011;69901;43.524;-5.636;2024-02-21T12:30:17;23.35;;;18.23;;
80557;SDS011;69901;43.524;-5.636;2024-02-21T12:32:44;17.52;;;15.63;;
80557;SDS011;69901;43.524;-5.636;2024-02-21T12:35:09;16.33;;;14.60;;
80557;SDS011;69901;43.524;-5.636;2024-02-21T12:37:35;17.03;;;15.17;;
80557;SDS011;69901;43.524;-5.636;2024-02-21T12:40:00;16.15;;;14.35;;
80557;SDS011;69901;43.524;-5.636;2024-02-21T12:42:26;15.13;;;13.63;;
80557;SDS011;69901;43.524;-5.636;2024-02-21T12:44:52;16.17;;;14.47;;
80557;SDS011;69901;43.524;-5.636;2024-02-21T12:47:20;15.70;;;14.15;;
80557;SDS011;69901;43.524;-5.636;2024-02-21T12:49:48;17.27;;;15.45;;
80557;SDS011;69901;43.524;-5.636;2024-02-21T12:52:20;18.27;;;15.15;;
80557;SDS011;69901;43.524;-5.636;2024-02-21T12:54:46;18.85;;;16.23;;
80557;SDS011;69901;43.524;-5.636;2024-02-21T12:57:12;17.10;;;15.33;;
80557;SDS011;69901;43.524;-5.636;2024-02-21T12:59:38;17.23;;;15.43;;
80557;SDS011;69901;43.524;-5.636;2024-02-21T13:02:03;18.27;;;15.77;;
80557;SDS011;69901;43.524;-5.636;2024-02-21T13:04:29;18.87;;;16.87;;
80557;SDS011;69901;43.524;-5.636;2024-02-21T13:06:57;27.42;;;16.77;;
80557;SDS011;69901;43.524;-5.636;2024-02-21T13:09:22;29.17;;;18.77;;
80557;SDS011;69901;43.524;-5.636;2024-02-21T13:11:48;37.78;;;18.95;;
80557;SDS011;69901;43.524;-5.636;2024-02-21T13:14:16;35.13;;;19.37;;
80557;SDS011;69901;43.524;-5.636;2024-02-21T13:16:41;45.00;;;20.88;;
80557;SDS011;69901;43.524;-5.636;2024-02-21T13:19:08;39.03;;;18.17;;
80557;SDS011;69901;43.524;-5.636;2024-02-21T13:21:36;36.45;;;18.58;;
80557;SDS011;69901;43.524;-5.636;2024-02-21T13:24:02;43.30;;;19.07;;
80557;SDS011;69901;43.524;-5.636;2024-02-21T13:26:28;30.80;;;17.35;;
80557;SDS011;69901;43.524;-5.636;2024-02-21T13:28:54;31.40;;;16.77;;
80557;SDS011;69901;43.524;-5.636;2024-02-21T13:31:20;30.08;;;17.63;;
80557;SDS011;69901;43.524;-5.636;2024-02-21T13:33:46;28.60;;;15.98;;
80557;SDS011;69901;43.524;-5.636;2024-02-21T13:36:11;27.03;;;15.97;;
80557;SDS011;69901;43.524;-5.636;2024-02-21T13:38:37;21.15;;;14.63;;
80557;SDS011;69901;43.524;-5.636;2024-02-21T13:41:04;31.67;;;15.80;;
80557;SDS011;69901;43.524;-5.636;2024-02-21T13:43:31;22.95;;;15.32;;
80557;SDS011;69901;43.524;-5.636;2024-02-21T13:45:57;27.42;;;17.02;;
80557;SDS011;69901;43.524;-5.636;2024-02-21T13:48:24;28.30;;;16.07;;
80557;SDS011;69901;43.524;-5.636;2024-02-21T13:50:49;26.50;;;15.68;;
80557;SDS011;69901;43.524;-5.636;2024-02-21T13:53:15;25.93;;;16.03;;
80557;SDS011;69901;43.524;-5.636;2024-02-21T13:55:43;24.95;;;15.52;;
80557;SDS011;69901;43.524;-5.636;2024-02-21T13:58:11;30.65;;;16.25;;
80557;SDS011;69901;43.524;-5.636;2024-02-21T14:00:37;29.25;;;16.73;;
80557;SDS011;69901;43.524;-5.636;2024-02-21T14:03:03;30.60;;;16.50;;
80557;SDS011;69901;43.524;-5.636;2024-02-21T14:05:30;26.23;;;16.02;;
80557;SDS011;69901;43.524;-5.636;2024-02-21T14:07:55;26.83;;;16.37;;
80557;SDS011;69901;43.524;-5.636;2024-02-21T14:10:21;22.40;;;15.73;;
80557;SDS011;69901;43.524;-5.636;2024-02-21T14:12:47;27.33;;;16.60;;
80557;SDS011;69901;43.524;-5.636;2024-02-21T14:15:13;25.60;;;15.25;;
80557;SDS011;69901;43.524;-5.636;2024-02-21T14:17:39;22.42;;;15.60;;
80557;SDS011;69901;43.524;-5.636;2024-02-21T14:20:06;27.13;;;17.17;;
80557;SDS011;69901;43.524;-5.636;2024-02-21T14:22:35;28.52;;;18.05;;
80557;SDS011;69901;43.524;-5.636;2024-02-21T14:25:03;26.98;;;18.95;;
80557;SDS011;69901;43.524;-5.636;2024-02-21T14:27:33;23.13;;;15.48;;
80557;SDS011;69901;43.524;-5.636;2024-02-21T14:30:00;19.60;;;16.53;;
80557;SDS011;69901;43.524;-5.636;2024-02-21T14:32:27;21.05;;;15.35;;
80557;SDS011;69901;43.524;-5.636;2024-02-21T14:34:53;21.43;;;14.90;;
80557;SDS011;69901;43.524;-5.636;2024-02-21T14:37:18;22.73;;;15.40;;
80557;SDS011;69901;43.524;-5.636;2024-02-21T14:39:49;22.95;;;15.07;;
80557;SDS011;69901;43.524;-5.636;2024-02-21T14:42:15;19.73;;;13.90;;
80557;SDS011;69901;43.524;-5.636;2024-02-21T14:44:42;16.48;;;13.52;;
80557;SDS011;69901;43.524;-5.636;2024-02-21T14:47:08;18.83;;;14.05;;
80557;SDS011;69901;43.524;-5.636;2024-02-21T14:49:34;16.37;;;14.23;;
80557;SDS011;69901;43.524;-5.636;2024-02-21T14:51:59;19.57;;;13.90;;
80557;SDS011;69901;43.524;-5.636;2024-02-21T14:54:26;15.73;;;13.25;;
80557;SDS011;69901;43.524;-5.636;2024-02-21T14:56:52;16.73;;;14.10;;
80557;SDS011;69901;43.524;-5.636;2024-02-21T14:59:19;16.70;;;14.50;;
80557;SDS011;69901;43.524;-5.636;2024-02-21T15:01:45;15.63;;;13.00;;
80557;SDS011;69901;43.524;-5.636;2024-02-21T15:04:10;15.60;;;14.03;;
80557;SDS011;69901;43.524;-5.636;2024-02-21T15:06:36;21.00;;;15.60;;
80557;SDS011;69901;43.524;-5.636;2024-02-21T15:09:02;22.42;;;15.20;;